createdAt,value
2022-09-12T00:01:26.809Z,92.67
2022-09-12T00:05:01.792Z,92.96
2022-09-12T00:08:39.204Z,92.87
2022-09-12T00:12:15.668Z,92.90
2022-09-12T00:15:52.382Z,92.85
2022-09-12T00:19:47.905Z,92.68
2022-09-12T00:23:09.984Z,92.89
2022-09-12T00:26:47.006Z,93.03
2022-09-12T00:30:43.954Z,93.15
2022-09-12T00:34:05.561Z,93.19
2022-09-12T00:37:42.361Z,93.27
2022-09-12T00:41:24.258Z,93.42
2022-09-12T00:45:26.601Z,93.54
2022-09-12T00:49:01.751Z,93.53
2022-09-12T00:52:43.506Z,93.71
2022-09-12T00:56:07.376Z,93.74
2022-09-12T01:00:04.567Z,94.10
2022-09-12T01:03:46.816Z,94.19
2022-09-12T01:07:08.953Z,94.21
2022-09-12T01:10:45.774Z,94.55
2022-09-12T01:14:41.241Z,94.51
2022-09-12T01:18:41.584Z,94.65
2022-09-12T01:23:13.583Z,94.52
2022-09-12T01:27:14.637Z,94.58
2022-09-12T01:31:05.902Z,94.61
2022-09-12T01:34:46.876Z,94.66
2022-09-12T01:38:25.522Z,94.63
2022-09-12T01:42:00.281Z,94.62
2022-09-12T01:45:59.824Z,94.70
2022-09-12T01:49:36.849Z,94.77
2022-09-12T01:53:43.454Z,94.51
2022-09-12T01:57:12.990Z,94.20
2022-09-12T02:00:50.195Z,94.23
2022-09-12T02:04:22.830Z,94.18
2022-09-12T02:08:06.820Z,94.39
2022-09-12T02:11:36.618Z,94.34
2022-09-12T02:15:12.410Z,94.34
2022-09-12T02:18:50.769Z,94.23
2022-09-12T02:22:43.491Z,94.15
2022-09-12T02:26:30.033Z,94.07
2022-09-12T02:29:53.565Z,94.04
2022-09-12T02:33:46.280Z,94.14
2022-09-12T02:37:32.514Z,93.98
2022-09-12T02:41:18.076Z,94.21
2022-09-12T02:44:58.708Z,94.13
2022-09-12T02:48:42.890Z,94.21
2022-09-12T02:52:24.247Z,93.95
2022-09-12T02:55:46.043Z,93.73
2022-09-12T02:59:24.971Z,93.52
2022-09-12T03:03:27.016Z,93.61
2022-09-12T03:06:58.732Z,93.64
2022-09-12T03:11:02.820Z,93.78
2022-09-12T03:14:53.214Z,93.93
2022-09-12T03:18:29.729Z,94.02
2022-09-12T03:22:04.726Z,93.76
2022-09-12T03:25:58.437Z,93.47
2022-09-12T03:29:21.693Z,93.25
2022-09-12T03:33:18.957Z,93.21
2022-09-12T03:36:41.624Z,93.33
2022-09-12T03:40:17.934Z,93.46
2022-09-12T03:44:13.113Z,93.50
2022-09-12T03:47:54.499Z,93.29
2022-09-12T03:51:15.930Z,93.09
2022-09-12T03:54:52.707Z,92.92
2022-09-12T03:58:30.947Z,93.07
2022-09-12T04:02:25.232Z,93.28
2022-09-12T04:05:47.539Z,93.46
2022-09-12T04:09:23.931Z,93.58
2022-09-12T04:13:18.927Z,93.68
2022-09-12T04:17:00.610Z,93.79
2022-09-12T04:20:43.319Z,93.61
2022-09-12T04:24:05.145Z,93.51
2022-09-12T04:27:41.706Z,93.52
2022-09-12T04:31:20.766Z,93.54
2022-09-12T04:35:14.079Z,93.82
2022-09-12T04:38:36.234Z,93.87
2022-09-12T04:42:12.590Z,94.20
2022-09-12T04:46:11.446Z,94.39
2022-09-12T04:49:52.142Z,94.37
2022-09-12T04:53:14.014Z,94.44
2022-09-12T04:56:52.289Z,94.48
2022-09-12T05:00:46.446Z,94.73
2022-09-12T05:04:10.854Z,95.00
2022-09-12T05:07:45.083Z,95.01
2022-09-12T05:11:41.150Z,95.02
2022-09-12T05:15:10.173Z,95.22
2022-09-12T05:18:48.940Z,95.33
2022-09-12T05:22:42.495Z,95.03
2022-09-12T05:26:06.351Z,95.29
2022-09-12T05:29:58.451Z,95.28
2022-09-12T05:33:24.922Z,95.50
2022-09-12T05:37:16.616Z,95.78
2022-09-12T05:40:38.372Z,95.90
2022-09-12T05:44:15.552Z,95.85
2022-09-12T05:47:54.270Z,95.85
2022-09-12T05:51:32.967Z,95.87
2022-09-12T05:55:06.011Z,96.10
2022-09-12T05:58:44.777Z,96.06
2022-09-12T06:02:19.171Z,96.08
2022-09-12T06:06:18.050Z,96.08
2022-09-12T06:09:39.929Z,96.13
2022-09-12T06:13:16.648Z,96.13
2022-09-12T06:17:12.182Z,96.00
2022-09-12T06:20:37.025Z,96.21
2022-09-12T06:24:30.383Z,96.16
2022-09-12T06:28:10.688Z,96.37
2022-09-12T06:31:34.727Z,96.24
2022-09-12T06:35:28.636Z,96.33
2022-09-12T06:39:12.653Z,96.26
2022-09-12T06:42:34.621Z,96.04
2022-09-12T06:46:12.380Z,96.01
2022-09-12T06:49:48.304Z,95.88
2022-09-12T06:53:45.242Z,95.84
2022-09-12T06:57:08.418Z,95.88
2022-09-12T07:00:44.102Z,95.65
2022-09-12T07:04:20.975Z,95.39
2022-09-12T07:07:59.234Z,94.93
2022-09-12T07:11:36.670Z,94.35
2022-09-12T07:15:11.419Z,94.62
2022-09-12T07:18:52.480Z,94.38
2022-09-12T07:22:24.464Z,94.34
2022-09-12T07:26:01.950Z,94.03
2022-09-12T07:29:56.972Z,93.69
2022-09-12T07:33:39.404Z,93.13
2022-09-12T07:37:01.346Z,92.71
2022-09-12T07:40:37.830Z,92.73
2022-09-12T07:44:14.704Z,92.47
2022-09-12T07:47:54.355Z,92.37
2022-09-12T07:51:30.153Z,91.51
2022-09-12T07:55:06.182Z,90.30
2022-09-12T07:58:43.367Z,90.21
2022-09-12T08:02:38.612Z,89.57
2022-09-12T08:06:08.402Z,88.41
2022-09-12T08:09:37.872Z,88.12
2022-09-12T08:13:14.373Z,87.15
2022-09-12T08:17:09.632Z,86.45
2022-09-12T08:20:31.431Z,85.03
2022-09-12T08:24:08.908Z,83.77
2022-09-12T08:27:46.846Z,83.95
2022-09-12T08:31:25.258Z,83.58
2022-09-12T08:34:58.409Z,81.83
2022-09-12T08:38:37.124Z,81.21
2022-09-12T08:43:02.101Z,80.51
2022-09-12T08:46:34.741Z,80.56
2022-09-12T08:50:10.306Z,78.40
2022-09-12T08:53:57.749Z,77.98
2022-09-12T08:57:19.222Z,77.15
2022-09-12T09:01:23.981Z,76.29
2022-09-12T09:04:52.845Z,77.19
2022-09-12T09:09:01.433Z,74.78
2022-09-12T09:12:33.618Z,74.81
2022-09-12T09:16:17.358Z,74.27
2022-09-12T09:19:51.027Z,75.01
2022-09-12T09:23:28.383Z,74.09
2022-09-12T09:27:02.525Z,74.01
2022-09-12T09:30:49.747Z,73.31
2022-09-12T09:34:33.682Z,73.50
2022-09-12T09:38:27.296Z,72.51
2022-09-12T09:42:05.565Z,72.33
2022-09-12T09:45:29.745Z,71.80
2022-09-12T09:49:26.669Z,72.05
2022-09-12T09:53:47.092Z,70.97
2022-09-12T09:57:34.007Z,70.25
2022-09-12T10:01:06.263Z,68.71
2022-09-12T10:04:56.961Z,69.27
2022-09-12T10:08:38.603Z,67.85
2022-09-12T10:12:19.479Z,68.32
2022-09-12T10:16:04.831Z,67.36
2022-09-12T10:19:36.747Z,67.36
2022-09-12T10:23:29.480Z,66.90
2022-09-12T10:27:05.666Z,65.98
2022-09-12T10:30:29.639Z,66.13
2022-09-12T10:34:16.033Z,65.80
2022-09-12T10:37:52.333Z,66.54
2022-09-12T10:41:22.017Z,63.41
2022-09-12T10:44:57.122Z,64.92
2022-09-12T10:48:33.838Z,63.58
2022-09-12T10:52:17.949Z,63.23
2022-09-12T10:56:12.474Z,63.04
2022-09-12T10:59:41.216Z,60.61
2022-09-12T11:03:25.041Z,61.96
2022-09-12T11:07:02.188Z,60.18
2022-09-12T11:10:44.402Z,60.60
2022-09-12T11:14:44.317Z,59.93
2022-09-12T11:18:23.798Z,58.43
2022-09-12T11:21:57.778Z,59.59
2022-09-12T11:25:45.668Z,59.59
2022-09-12T11:29:26.497Z,58.12
2022-09-12T11:33:21.878Z,58.18
2022-09-12T11:37:17.828Z,57.10
2022-09-12T11:40:44.508Z,55.89
2022-09-12T11:44:42.193Z,56.09
2022-09-12T11:48:36.653Z,57.31
2022-09-12T11:52:23.158Z,56.72
2022-09-12T11:55:53.847Z,55.63
2022-09-12T11:59:59.356Z,55.55
2022-09-12T12:03:33.272Z,55.53
2022-09-12T12:07:06.092Z,56.21
2022-09-12T12:10:35.784Z,56.91
2022-09-12T12:14:42.086Z,56.59
2022-09-12T12:18:29.582Z,55.62
2022-09-12T12:21:52.345Z,55.80
2022-09-12T12:25:56.736Z,54.51
2022-09-12T12:29:21.820Z,54.45
2022-09-12T12:33:16.089Z,53.63
2022-09-12T12:36:41.066Z,53.60
2022-09-12T12:40:23.609Z,52.60
2022-09-12T12:44:44.688Z,52.81
2022-09-12T12:48:25.191Z,51.24
2022-09-12T12:52:01.589Z,51.98
2022-09-12T12:55:33.908Z,53.01
2022-09-12T12:59:04.904Z,53.61
2022-09-12T13:03:10.106Z,53.40
2022-09-12T13:06:37.998Z,53.80
2022-09-12T13:10:29.525Z,53.50
2022-09-12T13:14:46.963Z,51.50
2022-09-12T13:18:25.144Z,51.61
2022-09-12T13:22:09.570Z,51.91
2022-09-12T13:25:59.985Z,52.17
2022-09-12T13:29:40.810Z,51.45
2022-09-12T13:33:32.008Z,50.68
2022-09-12T13:37:04.839Z,50.29
2022-09-12T13:40:55.879Z,50.59
2022-09-12T13:44:45.067Z,50.59
2022-09-12T13:48:25.665Z,50.07
2022-09-12T13:52:00.212Z,48.58
2022-09-12T13:55:48.409Z,47.03
2022-09-12T13:59:12.869Z,47.16
2022-09-12T14:02:48.551Z,47.94
2022-09-12T14:06:25.105Z,44.72
2022-09-12T14:10:01.699Z,44.06
2022-09-12T14:13:57.232Z,43.00
2022-09-12T14:17:26.129Z,40.03
2022-09-12T14:21:33.521Z,39.21
2022-09-12T14:24:56.987Z,39.90
2022-09-12T14:28:33.751Z,37.35
2022-09-12T14:32:22.268Z,38.38
2022-09-12T14:36:07.195Z,38.96
2022-09-12T14:39:48.590Z,40.68
2022-09-12T14:43:30.748Z,41.51
2022-09-12T14:46:53.327Z,41.48
2022-09-12T14:50:51.476Z,41.76
2022-09-12T14:54:35.539Z,42.95
2022-09-12T14:58:19.149Z,44.66
2022-09-12T15:01:41.183Z,44.46
2022-09-12T15:05:21.391Z,44.34
2022-09-12T15:09:13.629Z,43.79
2022-09-12T15:13:04.867Z,44.21
2022-09-12T15:16:45.639Z,44.33
2022-09-12T15:20:26.690Z,45.15
2022-09-12T15:24:08.567Z,46.19
2022-09-12T15:27:53.067Z,46.72
2022-09-12T15:31:34.118Z,47.86
2022-09-12T15:34:56.773Z,49.07
2022-09-12T15:38:52.632Z,49.58
2022-09-12T15:42:16.117Z,50.46
2022-09-12T15:45:51.729Z,51.44
2022-09-12T15:49:28.352Z,52.17
2022-09-12T15:53:05.036Z,52.46
2022-09-12T15:56:41.592Z,52.58
2022-09-12T16:00:19.606Z,52.90
2022-09-12T16:04:23.044Z,53.21
2022-09-12T16:07:45.093Z,54.00
2022-09-12T16:11:40.719Z,54.79
2022-09-12T16:15:24.263Z,55.82
2022-09-12T16:18:47.115Z,56.09
2022-09-12T16:22:22.960Z,57.01
2022-09-12T16:26:18.682Z,57.65
2022-09-12T16:29:40.564Z,57.72
2022-09-12T16:33:37.701Z,58.32
2022-09-12T16:36:59.509Z,59.67
2022-09-12T16:41:02.629Z,59.59
2022-09-12T16:44:43.404Z,60.02
2022-09-12T16:48:24.429Z,60.61
2022-09-12T16:52:05.641Z,61.03
2022-09-12T16:55:31.403Z,61.45
2022-09-12T16:59:05.428Z,61.46
2022-09-12T17:03:00.103Z,62.09
2022-09-12T17:06:42.020Z,62.38
2022-09-12T17:10:04.257Z,62.68
2022-09-12T17:14:03.397Z,63.52
2022-09-12T17:17:25.132Z,64.12
2022-09-12T17:21:01.674Z,64.44
2022-09-12T17:24:39.008Z,64.71
2022-09-12T17:28:15.764Z,64.81
2022-09-12T17:31:52.243Z,64.94
2022-09-12T17:35:29.212Z,65.73
2022-09-12T17:39:05.775Z,65.73
2022-09-12T17:43:01.974Z,66.00
2022-09-12T17:46:26.787Z,66.26
2022-09-12T17:50:27.356Z,66.31
2022-09-12T17:53:43.858Z,67.06
2022-09-12T17:57:39.714Z,67.94
2022-09-12T18:01:30.822Z,68.65
2022-09-12T18:05:12.556Z,68.98
2022-09-12T18:08:34.743Z,68.94
2022-09-12T18:12:11.542Z,69.05
2022-09-12T18:15:48.228Z,69.08
2022-09-12T18:19:25.216Z,69.04
2022-09-12T18:23:01.753Z,68.97
2022-09-12T18:26:39.013Z,68.97
2022-09-12T18:30:34.006Z,69.16
2022-09-12T18:34:18.020Z,69.86
2022-09-12T18:37:58.258Z,70.78
2022-09-12T18:41:23.021Z,71.29
2022-09-12T18:44:56.930Z,71.55
2022-09-12T18:48:55.005Z,71.54
2022-09-12T18:52:19.002Z,71.54
2022-09-12T18:56:01.337Z,71.28
2022-09-12T18:59:30.481Z,71.16
2022-09-12T19:03:26.319Z,71.16
2022-09-12T19:06:48.686Z,71.30
2022-09-12T19:10:25.839Z,71.56
2022-09-12T19:14:02.381Z,72.15
2022-09-12T19:17:38.728Z,72.84
2022-09-12T19:21:18.100Z,72.92
2022-09-12T19:25:13.117Z,73.00
2022-09-12T19:28:54.877Z,73.00
2022-09-12T19:32:16.768Z,72.95
2022-09-12T19:35:53.924Z,73.27
2022-09-12T19:39:49.373Z,73.33
2022-09-12T19:43:12.118Z,73.44
2022-09-12T19:46:48.337Z,73.86
2022-09-12T19:50:25.422Z,74.32
2022-09-12T19:54:20.697Z,74.91
2022-09-12T19:57:43.088Z,75.16
2022-09-12T20:01:30.007Z,75.04
2022-09-12T20:04:56.252Z,74.71
2022-09-12T20:08:34.000Z,74.52
2022-09-12T20:12:11.050Z,74.30
2022-09-12T20:15:46.312Z,74.11
2022-09-12T20:19:42.022Z,74.33
2022-09-12T20:23:24.823Z,74.57
2022-09-12T20:27:05.730Z,74.93
2022-09-12T20:30:46.930Z,75.50
2022-09-12T20:34:27.785Z,75.71
2022-09-12T20:38:08.581Z,75.78
2022-09-12T20:41:49.256Z,75.61
2022-09-12T20:45:29.722Z,75.59
2022-09-12T20:49:10.641Z,75.53
2022-09-12T20:52:32.615Z,75.52
2022-09-12T20:56:09.350Z,75.79
2022-09-12T20:59:46.237Z,76.20
2022-09-12T21:03:23.330Z,76.42
2022-09-12T21:06:59.828Z,76.40
2022-09-12T21:10:36.297Z,76.42
2022-09-12T21:14:13.367Z,76.39
2022-09-12T21:17:50.292Z,76.41
2022-09-12T21:21:27.074Z,76.54
2022-09-12T21:25:03.729Z,76.89
2022-09-12T21:28:40.406Z,77.32
2022-09-12T21:32:17.722Z,77.98
2022-09-12T21:35:54.173Z,78.31
2022-09-12T21:39:30.468Z,78.29
2022-09-12T21:43:12.363Z,78.10
2022-09-12T21:46:44.151Z,77.87
2022-09-12T21:50:21.273Z,77.66
2022-09-12T21:54:16.641Z,77.80
2022-09-12T21:57:38.901Z,77.96
2022-09-12T22:01:15.251Z,78.38
2022-09-12T22:04:52.234Z,78.80
2022-09-12T22:08:47.880Z,78.71
2022-09-12T22:12:09.457Z,78.19
2022-09-12T22:15:50.861Z,77.76
2022-09-12T22:19:23.563Z,77.69
2022-09-12T22:23:22.414Z,77.69
2022-09-12T22:26:46.605Z,77.91
2022-09-12T22:30:23.581Z,78.46
2022-09-12T22:34:00.172Z,79.03
2022-09-12T22:37:36.999Z,78.77
2022-09-12T22:41:14.323Z,78.40
2022-09-12T22:44:50.531Z,77.94
2022-09-12T22:48:27.803Z,77.84
2022-09-12T22:52:04.327Z,77.68
2022-09-12T22:56:00.567Z,78.22
2022-09-12T22:59:22.463Z,78.48
2022-09-12T23:03:01.980Z,78.65
2022-09-12T23:06:37.142Z,78.72
2022-09-12T23:10:35.815Z,78.59
2022-09-12T23:14:16.560Z,78.48
2022-09-12T23:17:59.239Z,78.37
2022-09-12T23:21:40.367Z,78.38
2022-09-12T23:25:03.370Z,78.65
2022-09-12T23:29:00.478Z,79.07
2022-09-12T23:32:41.682Z,79.63
2022-09-12T23:36:11.408Z,79.80
2022-09-12T23:39:40.305Z,79.53
2022-09-12T23:43:17.497Z,79.39
2022-09-12T23:46:54.197Z,79.34
2022-09-12T23:50:30.414Z,79.32
2022-09-12T23:54:26.497Z,79.40
2022-09-12T23:58:08.301Z,79.63
